sensor_id;sensor_type;location;lat;lon;timestamp;P1;durP1;ratioP1;P2;durP2;ratioP2
70126;SDS011;57491;42.694;23.314;2023-04-30T00:00:53;19.70;;;12.50;;
70126;SDS011;57491;42.694;23.314;2023-04-30T00:03:20;21.40;;;12.88;;
70126;SDS011;57491;42.694;23.314;2023-04-30T00:05:50;20.10;;;12.13;;
70126;SDS011;57491;42.694;23.314;2023-04-30T00:08:17;18.00;;;12.35;;
70126;SDS011;57491;42.694;23.314;2023-04-30T00:10:44;17.58;;;11.48;;
70126;SDS011;57491;42.694;23.314;2023-04-30T00:13:11;20.48;;;12.05;;
70126;SDS011;57491;42.694;23.314;2023-04-30T00:15:38;17.13;;;12.05;;
70126;SDS011;57491;42.694;23.314;2023-04-30T00:18:06;19.08;;;12.23;;
70126;SDS011;57491;42.694;23.314;2023-04-30T00:23:02;19.92;;;11.50;;
70126;SDS011;57491;42.694;23.314;2023-04-30T00:25:28;19.67;;;11.77;;
70126;SDS011;57491;42.694;23.314;2023-04-30T00:27:55;21.85;;;11.68;;
70126;SDS011;57491;42.694;23.314;2023-04-30T00:30:23;20.20;;;12.57;;
70126;SDS011;57491;42.694;23.314;2023-04-30T00:32:50;18.05;;;12.07;;
70126;SDS011;57491;42.694;23.314;2023-04-30T00:35:17;21.08;;;12.80;;
70126;SDS011;57491;42.694;23.314;2023-04-30T00:37:44;19.48;;;11.98;;
70126;SDS011;57491;42.694;23.314;2023-04-30T00:40:12;22.33;;;12.47;;
70126;SDS011;57491;42.694;23.314;2023-04-30T00:42:39;22.70;;;12.70;;
70126;SDS011;57491;42.694;23.314;2023-04-30T00:45:07;18.27;;;11.02;;
70126;SDS011;57491;42.694;23.314;2023-04-30T00:47:34;19.77;;;12.45;;
70126;SDS011;57491;42.694;23.314;2023-04-30T00:50:01;15.80;;;11.20;;
70126;SDS011;57491;42.694;23.314;2023-04-30T00:52:28;20.38;;;10.93;;
70126;SDS011;57491;42.694;23.314;2023-04-30T00:54:55;19.73;;;12.70;;
70126;SDS011;57491;42.694;23.314;2023-04-30T00:57:24;21.40;;;11.93;;
70126;SDS011;57491;42.694;23.314;2023-04-30T00:59:52;18.83;;;12.13;;
70126;SDS011;57491;42.694;23.314;2023-04-30T01:02:20;17.90;;;12.20;;
70126;SDS011;57491;42.694;23.314;2023-04-30T01:07:16;20.13;;;10.73;;
70126;SDS011;57491;42.694;23.314;2023-04-30T01:09:43;19.97;;;11.47;;
70126;SDS011;57491;42.694;23.314;2023-04-30T01:12:12;16.70;;;10.75;;
70126;SDS011;57491;42.694;23.314;2023-04-30T01:14:52;15.75;;;9.48;;
70126;SDS011;57491;42.694;23.314;2023-04-30T01:17:27;17.13;;;10.07;;
70126;SDS011;57491;42.694;23.314;2023-04-30T01:20:00;16.80;;;9.82;;
70126;SDS011;57491;42.694;23.314;2023-04-30T01:22:34;16.45;;;9.13;;
70126;SDS011;57491;42.694;23.314;2023-04-30T01:25:13;15.68;;;9.63;;
70126;SDS011;57491;42.694;23.314;2023-04-30T01:27:58;15.03;;;9.83;;
70126;SDS011;57491;42.694;23.314;2023-04-30T01:30:29;12.65;;;9.50;;
70126;SDS011;57491;42.694;23.314;2023-04-30T01:32:57;16.02;;;10.20;;
70126;SDS011;57491;42.694;23.314;2023-04-30T01:35:26;19.60;;;10.47;;
70126;SDS011;57491;42.694;23.314;2023-04-30T01:38:06;17.08;;;9.57;;
70126;SDS011;57491;42.694;23.314;2023-04-30T01:40:42;12.63;;;9.23;;
70126;SDS011;57491;42.694;23.314;2023-04-30T01:43:17;13.20;;;9.50;;
70126;SDS011;57491;42.694;23.314;2023-04-30T01:45:54;16.20;;;9.77;;
70126;SDS011;57491;42.694;23.314;2023-04-30T01:48:29;15.05;;;11.05;;
70126;SDS011;57491;42.694;23.314;2023-04-30T01:51:07;14.63;;;9.63;;
70126;SDS011;57491;42.694;23.314;2023-04-30T01:53:41;19.42;;;10.95;;
70126;SDS011;57491;42.694;23.314;2023-04-30T01:56:11;13.35;;;9.90;;
70126;SDS011;57491;42.694;23.314;2023-04-30T01:58:45;13.07;;;9.38;;
70126;SDS011;57491;42.694;23.314;2023-04-30T02:01:24;18.50;;;10.15;;
70126;SDS011;57491;42.694;23.314;2023-04-30T02:03:53;15.02;;;9.88;;
70126;SDS011;57491;42.694;23.314;2023-04-30T02:06:20;17.10;;;10.57;;
70126;SDS011;57491;42.694;23.314;2023-04-30T02:08:47;15.73;;;9.67;;
70126;SDS011;57491;42.694;23.314;2023-04-30T02:11:14;15.57;;;10.35;;
70126;SDS011;57491;42.694;23.314;2023-04-30T02:13:41;17.60;;;10.60;;
70126;SDS011;57491;42.694;23.314;2023-04-30T02:16:09;18.02;;;9.68;;
70126;SDS011;57491;42.694;23.314;2023-04-30T02:18:36;16.13;;;10.15;;
70126;SDS011;57491;42.694;23.314;2023-04-30T02:21:04;18.73;;;9.50;;
70126;SDS011;57491;42.694;23.314;2023-04-30T02:23:31;15.30;;;9.50;;
70126;SDS011;57491;42.694;23.314;2023-04-30T02:25:58;15.10;;;9.67;;
70126;SDS011;57491;42.694;23.314;2023-04-30T02:28:25;16.77;;;10.98;;
70126;SDS011;57491;42.694;23.314;2023-04-30T02:30:52;15.93;;;10.27;;
70126;SDS011;57491;42.694;23.314;2023-04-30T02:33:21;20.45;;;10.02;;
70126;SDS011;57491;42.694;23.314;2023-04-30T02:35:48;17.00;;;10.40;;
70126;SDS011;57491;42.694;23.314;2023-04-30T02:38:15;14.17;;;9.60;;
70126;SDS011;57491;42.694;23.314;2023-04-30T02:40:42;15.27;;;9.45;;
70126;SDS011;57491;42.694;23.314;2023-04-30T02:43:09;17.88;;;10.40;;
70126;SDS011;57491;42.694;23.314;2023-04-30T02:45:36;16.42;;;10.45;;
70126;SDS011;57491;42.694;23.314;2023-04-30T02:48:03;14.73;;;9.55;;
70126;SDS011;57491;42.694;23.314;2023-04-30T02:50:31;14.50;;;10.17;;
70126;SDS011;57491;42.694;23.314;2023-04-30T02:52:58;11.90;;;9.43;;
70126;SDS011;57491;42.694;23.314;2023-04-30T02:55:26;18.27;;;10.18;;
70126;SDS011;57491;42.694;23.314;2023-04-30T02:57:53;13.25;;;9.27;;
70126;SDS011;57491;42.694;23.314;2023-04-30T03:00:20;15.43;;;9.68;;
70126;SDS011;57491;42.694;23.314;2023-04-30T03:02:47;17.70;;;9.43;;
70126;SDS011;57491;42.694;23.314;2023-04-30T03:05:14;16.73;;;9.80;;
70126;SDS011;57491;42.694;23.314;2023-04-30T03:07:42;16.05;;;9.73;;
70126;SDS011;57491;42.694;23.314;2023-04-30T03:10:10;15.05;;;9.18;;
70126;SDS011;57491;42.694;23.314;2023-04-30T03:12:37;16.50;;;9.45;;
70126;SDS011;57491;42.694;23.314;2023-04-30T03:15:04;12.45;;;8.00;;
70126;SDS011;57491;42.694;23.314;2023-04-30T03:17:32;12.13;;;7.70;;
70126;SDS011;57491;42.694;23.314;2023-04-30T03:19:59;13.20;;;8.07;;
70126;SDS011;57491;42.694;23.314;2023-04-30T03:22:27;10.73;;;7.18;;
70126;SDS011;57491;42.694;23.314;2023-04-30T03:24:57;10.05;;;7.32;;
70126;SDS011;57491;42.694;23.314;2023-04-30T03:27:24;12.65;;;7.15;;
70126;SDS011;57491;42.694;23.314;2023-04-30T03:29:51;12.60;;;7.60;;
70126;SDS011;57491;42.694;23.314;2023-04-30T03:32:18;8.80;;;5.43;;
70126;SDS011;57491;42.694;23.314;2023-04-30T03:34:45;10.57;;;6.53;;
70126;SDS011;57491;42.694;23.314;2023-04-30T03:37:12;8.10;;;6.43;;
70126;SDS011;57491;42.694;23.314;2023-04-30T03:39:39;9.63;;;5.90;;
70126;SDS011;57491;42.694;23.314;2023-04-30T03:42:08;13.10;;;7.25;;
70126;SDS011;57491;42.694;23.314;2023-04-30T03:44:35;12.02;;;6.43;;
70126;SDS011;57491;42.694;23.314;2023-04-30T03:49:30;10.95;;;6.53;;
70126;SDS011;57491;42.694;23.314;2023-04-30T03:51:57;8.48;;;6.40;;
70126;SDS011;57491;42.694;23.314;2023-04-30T03:54:24;11.00;;;6.18;;
70126;SDS011;57491;42.694;23.314;2023-04-30T03:56:51;9.32;;;6.15;;
70126;SDS011;57491;42.694;23.314;2023-04-30T03:59:19;9.05;;;5.50;;
70126;SDS011;57491;42.694;23.314;2023-04-30T04:01:46;8.63;;;5.53;;
70126;SDS011;57491;42.694;23.314;2023-04-30T04:04:13;10.73;;;5.55;;
70126;SDS011;57491;42.694;23.314;2023-04-30T04:06:40;7.00;;;5.40;;
70126;SDS011;57491;42.694;23.314;2023-04-30T04:09:07;8.93;;;5.78;;
70126;SDS011;57491;42.694;23.314;2023-04-30T04:11:34;9.02;;;6.20;;
70126;SDS011;57491;42.694;23.314;2023-04-30T04:14:01;9.05;;;5.80;;
70126;SDS011;57491;42.694;23.314;2023-04-30T04:16:30;10.20;;;5.75;;
70126;SDS011;57491;42.694;23.314;2023-04-30T04:18:57;9.77;;;6.53;;
70126;SDS011;57491;42.694;23.314;2023-04-30T04:21:24;9.60;;;6.22;;
70126;SDS011;57491;42.694;23.314;2023-04-30T04:23:51;12.60;;;6.17;;
70126;SDS011;57491;42.694;23.314;2023-04-30T04:26:19;11.95;;;7.18;;
70126;SDS011;57491;42.694;23.314;2023-04-30T04:28:46;10.00;;;6.35;;
70126;SDS011;57491;42.694;23.314;2023-04-30T04:31:13;8.70;;;6.13;;
70126;SDS011;57491;42.694;23.314;2023-04-30T04:33:41;9.65;;;6.25;;
70126;SDS011;57491;42.694;23.314;2023-04-30T04:36:08;10.57;;;6.25;;
70126;SDS011;57491;42.694;23.314;2023-04-30T04:38:35;11.65;;;6.53;;
70126;SDS011;57491;42.694;23.314;2023-04-30T04:41:02;13.57;;;6.80;;
70126;SDS011;57491;42.694;23.314;2023-04-30T04:43:29;8.90;;;5.78;;
70126;SDS011;57491;42.694;23.314;2023-04-30T04:45:56;10.02;;;6.75;;
70126;SDS011;57491;42.694;23.314;2023-04-30T04:48:23;7.90;;;6.20;;
70126;SDS011;57491;42.694;23.314;2023-04-30T04:50:52;8.98;;;6.35;;
70126;SDS011;57491;42.694;23.314;2023-04-30T04:53:19;10.63;;;6.32;;
70126;SDS011;57491;42.694;23.314;2023-04-30T04:55:46;10.48;;;6.57;;
70126;SDS011;57491;42.694;23.314;2023-04-30T04:58:13;10.93;;;6.83;;
70126;SDS011;57491;42.694;23.314;2023-04-30T05:00:40;10.93;;;6.63;;
70126;SDS011;57491;42.694;23.314;2023-04-30T05:03:08;9.35;;;6.10;;
70126;SDS011;57491;42.694;23.314;2023-04-30T05:05:35;12.45;;;7.40;;
70126;SDS011;57491;42.694;23.314;2023-04-30T05:08:03;10.10;;;7.35;;
70126;SDS011;57491;42.694;23.314;2023-04-30T05:12:59;11.40;;;7.18;;
70126;SDS011;57491;42.694;23.314;2023-04-30T05:15:26;13.87;;;7.20;;
70126;SDS011;57491;42.694;23.314;2023-04-30T05:17:53;16.42;;;7.57;;
70126;SDS011;57491;42.694;23.314;2023-04-30T05:20:21;11.43;;;7.03;;
70126;SDS011;57491;42.694;23.314;2023-04-30T05:22:48;12.15;;;7.45;;
70126;SDS011;57491;42.694;23.314;2023-04-30T05:25:16;11.32;;;6.90;;
70126;SDS011;57491;42.694;23.314;2023-04-30T05:27:44;12.10;;;6.70;;
70126;SDS011;57491;42.694;23.314;2023-04-30T05:30:11;11.77;;;7.43;;
70126;SDS011;57491;42.694;23.314;2023-04-30T05:32:40;12.50;;;7.05;;
70126;SDS011;57491;42.694;23.314;2023-04-30T05:35:07;14.10;;;7.45;;
70126;SDS011;57491;42.694;23.314;2023-04-30T05:37:35;11.48;;;7.25;;
70126;SDS011;57491;42.694;23.314;2023-04-30T05:40:02;16.23;;;9.10;;
70126;SDS011;57491;42.694;23.314;2023-04-30T05:42:32;13.10;;;7.07;;
70126;SDS011;57491;42.694;23.314;2023-04-30T05:45:00;10.52;;;7.15;;
70126;SDS011;57491;42.694;23.314;2023-04-30T05:47:27;17.77;;;8.18;;
70126;SDS011;57491;42.694;23.314;2023-04-30T05:52:22;11.70;;;7.47;;
70126;SDS011;57491;42.694;23.314;2023-04-30T05:54:49;13.80;;;7.78;;
70126;SDS011;57491;42.694;23.314;2023-04-30T05:57:16;11.67;;;7.80;;
70126;SDS011;57491;42.694;23.314;2023-04-30T05:59:45;10.35;;;7.90;;
70126;SDS011;57491;42.694;23.314;2023-04-30T06:02:13;16.90;;;7.43;;
70126;SDS011;57491;42.694;23.314;2023-04-30T06:04:40;12.25;;;8.50;;
70126;SDS011;57491;42.694;23.314;2023-04-30T06:07:07;12.93;;;7.47;;
70126;SDS011;57491;42.694;23.314;2023-04-30T06:09:33;13.07;;;8.00;;
70126;SDS011;57491;42.694;23.314;2023-04-30T06:12:00;12.63;;;7.72;;
70126;SDS011;57491;42.694;23.314;2023-04-30T06:14:28;13.23;;;8.65;;
70126;SDS011;57491;42.694;23.314;2023-04-30T06:16:57;13.27;;;8.75;;
70126;SDS011;57491;42.694;23.314;2023-04-30T06:19:24;14.40;;;8.73;;
70126;SDS011;57491;42.694;23.314;2023-04-30T06:24:19;18.13;;;10.53;;
70126;SDS011;57491;42.694;23.314;2023-04-30T06:26:46;14.93;;;10.15;;
70126;SDS011;57491;42.694;23.314;2023-04-30T06:29:13;20.67;;;11.18;;
70126;SDS011;57491;42.694;23.314;2023-04-30T06:31:40;15.48;;;10.93;;
70126;SDS011;57491;42.694;23.314;2023-04-30T06:34:08;15.70;;;11.07;;
70126;SDS011;57491;42.694;23.314;2023-04-30T06:36:35;17.50;;;9.75;;
70126;SDS011;57491;42.694;23.314;2023-04-30T06:39:02;14.40;;;10.00;;
70126;SDS011;57491;42.694;23.314;2023-04-30T06:41:29;12.30;;;8.77;;
70126;SDS011;57491;42.694;23.314;2023-04-30T06:43:56;9.32;;;6.88;;
70126;SDS011;57491;42.694;23.314;2023-04-30T06:46:23;14.77;;;8.73;;
70126;SDS011;57491;42.694;23.314;2023-04-30T06:48:50;12.35;;;7.80;;
70126;SDS011;57491;42.694;23.314;2023-04-30T06:51:19;11.17;;;8.00;;
70126;SDS011;57491;42.694;23.314;2023-04-30T06:53:46;14.27;;;9.07;;
70126;SDS011;57491;42.694;23.314;2023-04-30T06:56:13;15.90;;;8.20;;
70126;SDS011;57491;42.694;23.314;2023-04-30T06:58:40;14.60;;;8.80;;
70126;SDS011;57491;42.694;23.314;2023-04-30T07:01:07;11.53;;;8.10;;
70126;SDS011;57491;42.694;23.314;2023-04-30T07:03:34;14.57;;;10.17;;
70126;SDS011;57491;42.694;23.314;2023-04-30T07:06:01;13.10;;;9.35;;
70126;SDS011;57491;42.694;23.314;2023-04-30T07:08:30;11.93;;;8.50;;
70126;SDS011;57491;42.694;23.314;2023-04-30T07:10:57;15.25;;;9.07;;
70126;SDS011;57491;42.694;23.314;2023-04-30T07:13:24;15.00;;;9.63;;
70126;SDS011;57491;42.694;23.314;2023-04-30T07:15:51;12.80;;;9.13;;
70126;SDS011;57491;42.694;23.314;2023-04-30T07:18:19;13.23;;;9.02;;
70126;SDS011;57491;42.694;23.314;2023-04-30T07:20:48;11.43;;;9.07;;
70126;SDS011;57491;42.694;23.314;2023-04-30T07:23:15;15.10;;;9.50;;
70126;SDS011;57491;42.694;23.314;2023-04-30T07:25:44;13.57;;;9.30;;
70126;SDS011;57491;42.694;23.314;2023-04-30T07:28:11;12.85;;;8.88;;
70126;SDS011;57491;42.694;23.314;2023-04-30T07:30:38;15.05;;;9.30;;
70126;SDS011;57491;42.694;23.314;2023-04-30T07:33:06;20.70;;;9.63;;
70126;SDS011;57491;42.694;23.314;2023-04-30T07:38:00;20.02;;;10.23;;
70126;SDS011;57491;42.694;23.314;2023-04-30T07:40:29;18.23;;;10.30;;
70126;SDS011;57491;42.694;23.314;2023-04-30T07:42:57;13.67;;;9.53;;
70126;SDS011;57491;42.694;23.314;2023-04-30T07:45:24;16.08;;;9.73;;
70126;SDS011;57491;42.694;23.314;2023-04-30T07:47:51;14.30;;;9.70;;
70126;SDS011;57491;42.694;23.314;2023-04-30T07:50:18;14.75;;;8.98;;
70126;SDS011;57491;42.694;23.314;2023-04-30T07:52:47;14.40;;;10.43;;
70126;SDS011;57491;42.694;23.314;2023-04-30T07:55:14;12.18;;;8.02;;
70126;SDS011;57491;42.694;23.314;2023-04-30T07:57:41;14.27;;;8.30;;
70126;SDS011;57491;42.694;23.314;2023-04-30T08:00:10;17.17;;;7.67;;
70126;SDS011;57491;42.694;23.314;2023-04-30T08:02:39;14.88;;;8.63;;
70126;SDS011;57491;42.694;23.314;2023-04-30T08:05:08;8.50;;;5.80;;
70126;SDS011;57491;42.694;23.314;2023-04-30T08:07:35;11.05;;;5.85;;
70126;SDS011;57491;42.694;23.314;2023-04-30T08:10:02;8.67;;;6.00;;
70126;SDS011;57491;42.694;23.314;2023-04-30T08:12:30;10.88;;;6.43;;
70126;SDS011;57491;42.694;23.314;2023-04-30T08:15:01;8.50;;;5.70;;
70126;SDS011;57491;42.694;23.314;2023-04-30T08:17:30;7.75;;;5.40;;
70126;SDS011;57491;42.694;23.314;2023-04-30T08:19:58;6.90;;;5.03;;
70126;SDS011;57491;42.694;23.314;2023-04-30T08:24:52;6.93;;;5.47;;
70126;SDS011;57491;42.694;23.314;2023-04-30T08:27:20;9.05;;;5.15;;
70126;SDS011;57491;42.694;23.314;2023-04-30T08:29:47;8.60;;;5.23;;
70126;SDS011;57491;42.694;23.314;2023-04-30T08:32:14;7.07;;;4.90;;
70126;SDS011;57491;42.694;23.314;2023-04-30T08:34:42;6.93;;;5.10;;
70126;SDS011;57491;42.694;23.314;2023-04-30T08:37:09;7.38;;;5.43;;
70126;SDS011;57491;42.694;23.314;2023-04-30T08:39:36;10.00;;;5.07;;
70126;SDS011;57491;42.694;23.314;2023-04-30T08:42:06;10.13;;;4.90;;
70126;SDS011;57491;42.694;23.314;2023-04-30T08:44:34;6.07;;;4.28;;
70126;SDS011;57491;42.694;23.314;2023-04-30T08:47:04;9.00;;;4.50;;
70126;SDS011;57491;42.694;23.314;2023-04-30T08:49:33;6.05;;;5.03;;
70126;SDS011;57491;42.694;23.314;2023-04-30T08:52:02;7.85;;;4.35;;
70126;SDS011;57491;42.694;23.314;2023-04-30T08:54:30;5.78;;;4.28;;
70126;SDS011;57491;42.694;23.314;2023-04-30T08:56:58;6.90;;;4.05;;
70126;SDS011;57491;42.694;23.314;2023-04-30T08:59:25;6.55;;;4.50;;
70126;SDS011;57491;42.694;23.314;2023-04-30T09:01:53;5.50;;;4.38;;
70126;SDS011;57491;42.694;23.314;2023-04-30T09:04:20;6.10;;;3.85;;
70126;SDS011;57491;42.694;23.314;2023-04-30T09:06:47;6.68;;;4.38;;
70126;SDS011;57491;42.694;23.314;2023-04-30T09:09:15;5.38;;;4.30;;
70126;SDS011;57491;42.694;23.314;2023-04-30T09:11:43;7.57;;;4.00;;
70126;SDS011;57491;42.694;23.314;2023-04-30T09:14:10;5.20;;;4.00;;
70126;SDS011;57491;42.694;23.314;2023-04-30T09:16:44;5.03;;;4.50;;
70126;SDS011;57491;42.694;23.314;2023-04-30T09:19:21;5.03;;;4.55;;
70126;SDS011;57491;42.694;23.314;2023-04-30T09:21:49;5.80;;;5.20;;
70126;SDS011;57491;42.694;23.314;2023-04-30T09:24:18;5.90;;;4.53;;
70126;SDS011;57491;42.694;23.314;2023-04-30T09:26:45;6.80;;;4.43;;
70126;SDS011;57491;42.694;23.314;2023-04-30T09:29:12;5.90;;;4.43;;
70126;SDS011;57491;42.694;23.314;2023-04-30T09:31:41;7.00;;;4.32;;
70126;SDS011;57491;42.694;23.314;2023-04-30T09:34:10;4.88;;;4.25;;
70126;SDS011;57491;42.694;23.314;2023-04-30T09:36:37;4.05;;;3.75;;
70126;SDS011;57491;42.694;23.314;2023-04-30T09:39:20;4.53;;;3.75;;
70126;SDS011;57491;42.694;23.314;2023-04-30T09:41:48;3.97;;;3.58;;
70126;SDS011;57491;42.694;23.314;2023-04-30T09:44:28;3.75;;;3.45;;
70126;SDS011;57491;42.694;23.314;2023-04-30T09:46:56;5.13;;;4.55;;
70126;SDS011;57491;42.694;23.314;2023-04-30T09:49:24;4.72;;;3.58;;
70126;SDS011;57491;42.694;23.314;2023-04-30T09:51:54;5.20;;;3.90;;
70126;SDS011;57491;42.694;23.314;2023-04-30T09:54:24;10.75;;;4.53;;
70126;SDS011;57491;42.694;23.314;2023-04-30T09:56:53;3.83;;;3.53;;
70126;SDS011;57491;42.694;23.314;2023-04-30T09:59:21;5.07;;;3.85;;
70126;SDS011;57491;42.694;23.314;2023-04-30T10:01:48;7.80;;;4.15;;
70126;SDS011;57491;42.694;23.314;2023-04-30T10:04:18;3.55;;;3.25;;
70126;SDS011;57491;42.694;23.314;2023-04-30T10:06:46;4.18;;;3.42;;
70126;SDS011;57491;42.694;23.314;2023-04-30T10:09:17;5.28;;;3.50;;
70126;SDS011;57491;42.694;23.314;2023-04-30T10:11:45;3.72;;;3.42;;
70126;SDS011;57491;42.694;23.314;2023-04-30T10:14:13;5.80;;;3.75;;
70126;SDS011;57491;42.694;23.314;2023-04-30T10:16:46;3.92;;;3.63;;
70126;SDS011;57491;42.694;23.314;2023-04-30T10:19:21;5.68;;;3.88;;
70126;SDS011;57491;42.694;23.314;2023-04-30T10:21:50;5.20;;;3.65;;
70126;SDS011;57491;42.694;23.314;2023-04-30T10:24:18;11.80;;;3.95;;
70126;SDS011;57491;42.694;23.314;2023-04-30T10:26:47;6.18;;;4.70;;
70126;SDS011;57491;42.694;23.314;2023-04-30T10:29:16;8.00;;;4.22;;
70126;SDS011;57491;42.694;23.314;2023-04-30T10:31:44;5.90;;;4.20;;
70126;SDS011;57491;42.694;23.314;2023-04-30T10:34:14;8.05;;;4.38;;
70126;SDS011;57491;42.694;23.314;2023-04-30T10:36:49;5.15;;;4.28;;
70126;SDS011;57491;42.694;23.314;2023-04-30T10:39:24;6.93;;;5.18;;
70126;SDS011;57491;42.694;23.314;2023-04-30T10:42:00;7.70;;;5.45;;
70126;SDS011;57491;42.694;23.314;2023-04-30T10:44:30;8.25;;;6.05;;
70126;SDS011;57491;42.694;23.314;2023-04-30T10:46:58;8.02;;;4.55;;
70126;SDS011;57491;42.694;23.314;2023-04-30T10:49:26;4.95;;;4.45;;
70126;SDS011;57491;42.694;23.314;2023-04-30T10:51:53;4.13;;;3.78;;
70126;SDS011;57491;42.694;23.314;2023-04-30T10:54:24;4.50;;;4.10;;
70126;SDS011;57491;42.694;23.314;2023-04-30T10:56:53;4.65;;;3.65;;
70126;SDS011;57491;42.694;23.314;2023-04-30T10:59:24;4.57;;;4.03;;
70126;SDS011;57491;42.694;23.314;2023-04-30T11:01:54;3.90;;;3.60;;
70126;SDS011;57491;42.694;23.314;2023-04-30T11:04:23;5.32;;;3.85;;
70126;SDS011;57491;42.694;23.314;2023-04-30T11:06:54;4.75;;;3.50;;
70126;SDS011;57491;42.694;23.314;2023-04-30T11:09:36;4.75;;;4.15;;
70126;SDS011;57491;42.694;23.314;2023-04-30T11:12:09;8.13;;;4.55;;
70126;SDS011;57491;42.694;23.314;2023-04-30T11:14:43;4.68;;;3.88;;
70126;SDS011;57491;42.694;23.314;2023-04-30T11:17:11;4.72;;;3.38;;
70126;SDS011;57491;42.694;23.314;2023-04-30T11:19:47;5.38;;;3.95;;
70126;SDS011;57491;42.694;23.314;2023-04-30T11:22:15;4.40;;;3.58;;
70126;SDS011;57491;42.694;23.314;2023-04-30T11:24:51;4.30;;;3.65;;
70126;SDS011;57491;42.694;23.314;2023-04-30T11:27:19;4.53;;;3.80;;
70126;SDS011;57491;42.694;23.314;2023-04-30T11:29:49;4.85;;;3.47;;
70126;SDS011;57491;42.694;23.314;2023-04-30T11:32:17;6.50;;;3.88;;
70126;SDS011;57491;42.694;23.314;2023-04-30T11:34:45;6.45;;;3.85;;
70126;SDS011;57491;42.694;23.314;2023-04-30T11:37:14;7.43;;;3.78;;
70126;SDS011;57491;42.694;23.314;2023-04-30T11:39:44;4.28;;;3.40;;
70126;SDS011;57491;42.694;23.314;2023-04-30T11:42:14;4.82;;;2.90;;
70126;SDS011;57491;42.694;23.314;2023-04-30T11:44:42;4.63;;;3.15;;
70126;SDS011;57491;42.694;23.314;2023-04-30T11:47:11;4.30;;;3.78;;
70126;SDS011;57491;42.694;23.314;2023-04-30T11:49:38;5.07;;;3.53;;
70126;SDS011;57491;42.694;23.314;2023-04-30T11:52:06;6.35;;;3.75;;
70126;SDS011;57491;42.694;23.314;2023-04-30T11:54:35;7.20;;;4.80;;
70126;SDS011;57491;42.694;23.314;2023-04-30T11:57:02;6.13;;;3.70;;
70126;SDS011;57491;42.694;23.314;2023-04-30T11:59:30;7.57;;;3.75;;
70126;SDS011;57491;42.694;23.314;2023-04-30T12:04:26;3.60;;;3.05;;
70126;SDS011;57491;42.694;23.314;2023-04-30T12:06:53;4.35;;;3.92;;
70126;SDS011;57491;42.694;23.314;2023-04-30T12:09:20;5.53;;;3.17;;
70126;SDS011;57491;42.694;23.314;2023-04-30T12:11:47;6.10;;;3.60;;
70126;SDS011;57491;42.694;23.314;2023-04-30T12:16:42;7.82;;;5.07;;
70126;SDS011;57491;42.694;23.314;2023-04-30T12:19:13;7.35;;;4.50;;
70126;SDS011;57491;42.694;23.314;2023-04-30T12:21:43;5.78;;;3.92;;
70126;SDS011;57491;42.694;23.314;2023-04-30T12:24:12;9.30;;;4.63;;
70126;SDS011;57491;42.694;23.314;2023-04-30T12:26:40;5.90;;;4.13;;
70126;SDS011;57491;42.694;23.314;2023-04-30T12:29:07;4.45;;;3.75;;
70126;SDS011;57491;42.694;23.314;2023-04-30T12:31:35;5.38;;;4.50;;
70126;SDS011;57491;42.694;23.314;2023-04-30T12:34:03;5.05;;;3.60;;
70126;SDS011;57491;42.694;23.314;2023-04-30T12:36:31;5.97;;;3.97;;
70126;SDS011;57491;42.694;23.314;2023-04-30T12:39:04;3.45;;;3.15;;
70126;SDS011;57491;42.694;23.314;2023-04-30T12:41:35;5.75;;;2.97;;
70126;SDS011;57491;42.694;23.314;2023-04-30T12:44:13;4.35;;;3.13;;
70126;SDS011;57491;42.694;23.314;2023-04-30T12:46:40;7.20;;;4.97;;
70126;SDS011;57491;42.694;23.314;2023-04-30T12:49:08;11.85;;;6.90;;
70126;SDS011;57491;42.694;23.314;2023-04-30T12:51:35;6.18;;;3.60;;
70126;SDS011;57491;42.694;23.314;2023-04-30T12:54:06;5.53;;;3.78;;
70126;SDS011;57491;42.694;23.314;2023-04-30T12:56:33;3.22;;;2.90;;
70126;SDS011;57491;42.694;23.314;2023-04-30T12:59:00;6.38;;;5.07;;
70126;SDS011;57491;42.694;23.314;2023-04-30T13:01:27;4.65;;;4.00;;
70126;SDS011;57491;42.694;23.314;2023-04-30T13:03:54;5.88;;;3.70;;
70126;SDS011;57491;42.694;23.314;2023-04-30T13:06:21;4.28;;;3.40;;
70126;SDS011;57491;42.694;23.314;2023-04-30T13:08:48;6.00;;;3.90;;
70126;SDS011;57491;42.694;23.314;2023-04-30T13:11:17;3.88;;;3.45;;
70126;SDS011;57491;42.694;23.314;2023-04-30T13:13:44;4.95;;;3.63;;
70126;SDS011;57491;42.694;23.314;2023-04-30T13:16:11;4.90;;;3.85;;
70126;SDS011;57491;42.694;23.314;2023-04-30T13:18:39;5.45;;;3.72;;
70126;SDS011;57491;42.694;23.314;2023-04-30T13:21:07;6.90;;;3.40;;
70126;SDS011;57491;42.694;23.314;2023-04-30T13:23:35;6.10;;;3.65;;
70126;SDS011;57491;42.694;23.314;2023-04-30T13:26:01;3.90;;;2.90;;
70126;SDS011;57491;42.694;23.314;2023-04-30T13:28:30;3.40;;;3.00;;
70126;SDS011;57491;42.694;23.314;2023-04-30T13:30:57;4.05;;;3.10;;
70126;SDS011;57491;42.694;23.314;2023-04-30T13:33:24;4.38;;;3.10;;
70126;SDS011;57491;42.694;23.314;2023-04-30T13:35:51;4.37;;;3.27;;
70126;SDS011;57491;42.694;23.314;2023-04-30T13:38:18;4.00;;;3.03;;
70126;SDS011;57491;42.694;23.314;2023-04-30T13:40:45;3.93;;;2.73;;
70126;SDS011;57491;42.694;23.314;2023-04-30T13:43:12;3.80;;;3.20;;
70126;SDS011;57491;42.694;23.314;2023-04-30T13:45:40;3.00;;;2.63;;
70126;SDS011;57491;42.694;23.314;2023-04-30T13:48:07;3.80;;;3.00;;
70126;SDS011;57491;42.694;23.314;2023-04-30T13:50:35;5.60;;;3.47;;
70126;SDS011;57491;42.694;23.314;2023-04-30T13:53:02;3.60;;;2.87;;
70126;SDS011;57491;42.694;23.314;2023-04-30T13:55:29;4.93;;;3.53;;
70126;SDS011;57491;42.694;23.314;2023-04-30T13:57:56;3.87;;;3.47;;
70126;SDS011;57491;42.694;23.314;2023-04-30T14:00:23;4.20;;;3.53;;
70126;SDS011;57491;42.694;23.314;2023-04-30T14:02:52;5.70;;;3.30;;
70126;SDS011;57491;42.694;23.314;2023-04-30T14:05:19;6.80;;;4.45;;
70126;SDS011;57491;42.694;23.314;2023-04-30T14:07:47;4.30;;;3.25;;
70126;SDS011;57491;42.694;23.314;2023-04-30T14:10:14;4.38;;;3.40;;
70126;SDS011;57491;42.694;23.314;2023-04-30T14:12:41;4.37;;;3.23;;
70126;SDS011;57491;42.694;23.314;2023-04-30T14:15:08;7.50;;;3.27;;
70126;SDS011;57491;42.694;23.314;2023-04-30T14:17:35;4.03;;;2.92;;
70126;SDS011;57491;42.694;23.314;2023-04-30T14:20:05;3.55;;;2.80;;
70126;SDS011;57491;42.694;23.314;2023-04-30T14:22:33;6.15;;;2.80;;
70126;SDS011;57491;42.694;23.314;2023-04-30T14:25:03;4.10;;;3.33;;
70126;SDS011;57491;42.694;23.314;2023-04-30T14:29:57;5.53;;;2.92;;
70126;SDS011;57491;42.694;23.314;2023-04-30T14:32:24;4.50;;;3.05;;
70126;SDS011;57491;42.694;23.314;2023-04-30T14:34:52;6.28;;;3.75;;
70126;SDS011;57491;42.694;23.314;2023-04-30T14:37:20;4.60;;;3.10;;
70126;SDS011;57491;42.694;23.314;2023-04-30T14:39:48;3.65;;;2.80;;
70126;SDS011;57491;42.694;23.314;2023-04-30T14:42:15;4.53;;;2.67;;
70126;SDS011;57491;42.694;23.314;2023-04-30T14:44:42;3.60;;;3.17;;
70126;SDS011;57491;42.694;23.314;2023-04-30T14:47:09;3.70;;;3.37;;
70126;SDS011;57491;42.694;23.314;2023-04-30T14:49:36;4.35;;;3.15;;
70126;SDS011;57491;42.694;23.314;2023-04-30T14:52:03;3.33;;;3.03;;
70126;SDS011;57491;42.694;23.314;2023-04-30T14:54:32;3.35;;;2.92;;
70126;SDS011;57491;42.694;23.314;2023-04-30T14:56:59;3.38;;;3.00;;
70126;SDS011;57491;42.694;23.314;2023-04-30T14:59:27;7.13;;;3.20;;